Leuven Template:n sääsivut:

Template documentation
and downloads

And another site



Normaali sää.    Ei varoituksia

Säätiedot lähimmiltä METAR asemilta

   
EBAW - Antwerp
Päivitetty: 12-12-2018 00:20
Selkeää  
Selkeää  
   Tuuli: Itä 5.6 km/h
Tuuli: Itä 5.6 km/h
Lämpötila: 3°C
Tuulen hyytävyys: 2°C
Kastepiste: 2°C
Kosteus: 93%
Ilmanpaine: 1025 mb
Näkyvyys: enemmän kuin 10 km
Pilvitiedot: Selkeää
EBAW 112220Z 09003KT CAVOK 03/02 Q1025 NOSIG
EBLG - Liège
Päivitetty: 12-12-2018 00:20
Puolipilvistä  
Puolipilvistä  
   Tuuli: Länsi 3.7 km/h
Tuuli: Länsi 3.7 km/h
Lämpötila: 3°C
Kastepiste: 1°C
Kosteus: 87%
Ilmanpaine: 1024 mb
Pilvisyys: Puolipilvistä
Näkyvyys: enemmän kuin 10 km
Pilvitiedot: Puolipilvistä 670.6 m
EBLG 112220Z 27002KT 9999 SCT022 03/01 Q1024 NOSIG
EBCV - Mons/Bergen
Päivitetty: 12-12-2018 00:33
Pilvistä  
Pilvistä  
   Tuuli: vaihtelee 3.7 km/h
Tuuli: vaihtelee 3.7 km/h
Lämpötila: 2°C
Kastepiste: 1°C
Kosteus: 93%
Ilmanpaine: 1025 mb
Pilvisyys: Pilvistä
Näkyvyys: 7 km
Pilvitiedot: Pilvistä 1463 m
EBCV 112233Z AUTO VRB02KT 7000 OVC048/// 02/01 Q1025 WHT
EHBK - Maastricht
Päivitetty: 12-12-2018 00:25
Puolipilvistä  
Puolipilvistä  
   Tuuli: vaihtelee 3.7 km/h
Tuuli: vaihtelee 3.7 km/h
Lämpötila: 3°C
Kastepiste: 2°C
Kosteus: 93%
Ilmanpaine: 1024 mb
Pilvisyys: Puolipilvistä
Näkyvyys: enemmän kuin 10 km
Pilvitiedot: Puolipilvistä
EHBK 112225Z AUTO VRB02KT 9999 NSC 03/02 Q1024
ELLX - Luxemburg
Päivitetty: 12-12-2018 00:20
Selkeää  
Selkeää  
   Tuuli: Pohjoinen 5.6 km/h
Tuuli: Pohjoinen 5.6 km/h
Lämpötila: -1°C
Tuulen hyytävyys: -3°C
Kastepiste: -1°C
Kosteus: 100%
Ilmanpaine: 1023 mb
Näkyvyys: enemmän kuin 10 km
Pilvitiedot: Selkeää
ELLX 112220Z 36003KT CAVOK M01/M01 Q1023 NOSIG
EBOS - Oostende
Päivitetty: 12-12-2018 00:20
Enimmäkseen pilvistä  
Enimmäkseen pilvistä  
   Tuuli: Itäkaakko 7.4 km/h
Tuuli: Itäkaakko 7.4 km/h
Lämpötila: 4°C
Tuulen hyytävyys: 2°C
Kastepiste: 2°C
Kosteus: 87%
Ilmanpaine: 1025 mb
Pilvisyys: Enimmäkseen pilvistä
Näkyvyys: enemmän kuin 10 km
Pilvitiedot: Enimmäkseen pilvistä 1219.2 m
EBOS 112220Z 12004KT 090V150 9999 BKN040 04/02 Q1025 NOSIG

Alkuperäinen skripti  Saratoga-weather.org Sovitettu myös templatelle  Weerstation Leuven